Aviation Digital Data Service (ADDS)

Output produced by METARs form (2005 UTC 21 December 2014)
found at http://aviationweather.gov/adds/metars/
 
KBPT 211733Z 2118/2218 08005KT P6SM SCT005 OVC015 
     TEMPO 2118/2120 5SM BR BKN005 OVC015 
     FM212000 12005KT P6SM SCT015 OVC025 
     FM220500 16003KT 5SM BR BKN015 
     FM220900 16003KT 2SM BR OVC007 
     FM221500 19010KT 5SM BR BKN007 OVC015